createdAt,value
2023-03-21T00:02:27.484Z,98489.91
2023-03-21T00:05:29.515Z,98493.47
2023-03-21T00:08:31.368Z,98490.72
2023-03-21T00:11:33.153Z,98483.66
2023-03-21T00:14:34.818Z,98487.19
2023-03-21T00:17:39.676Z,98481.00
2023-03-21T00:20:41.940Z,98484.53
2023-03-21T00:23:46.041Z,98480.97
2023-03-21T00:26:47.994Z,98479.22
2023-03-21T00:29:49.852Z,98480.09
2023-03-21T00:32:56.802Z,98481.81
2023-03-21T00:36:04.997Z,98470.41
2023-03-21T00:39:08.811Z,98464.19
2023-03-21T00:42:10.524Z,98461.56
2023-03-21T00:45:12.081Z,98465.97
2023-03-21T00:48:18.827Z,98461.47
2023-03-21T00:51:26.572Z,98455.31
2023-03-21T00:54:28.666Z,98453.50
2023-03-21T00:57:39.296Z,98450.88
2023-03-21T01:00:41.514Z,98449.88
2023-03-21T01:03:50.946Z,98447.19
2023-03-21T01:06:52.992Z,98444.53
2023-03-21T01:09:54.637Z,98449.72
2023-03-21T01:12:56.445Z,98444.41
2023-03-21T01:15:58.356Z,98438.16
2023-03-21T01:19:04.868Z,98439.94
2023-03-21T01:22:07.057Z,98439.94
2023-03-21T01:25:21.994Z,98440.88
2023-03-21T01:28:25.848Z,98440.03
2023-03-21T01:31:28.349Z,98432.06
2023-03-21T01:34:33.556Z,98433.88
2023-03-21T01:37:35.361Z,98433.81
2023-03-21T01:40:37.943Z,98438.25
2023-03-21T01:43:48.060Z,98437.38
2023-03-21T01:50:22.397Z,98432.03
2023-03-21T01:53:48.165Z,98431.16
2023-03-21T01:56:51.975Z,98423.19
2023-03-21T01:59:54.726Z,98428.56
2023-03-21T02:03:26.260Z,98424.13
2023-03-21T02:06:44.259Z,98424.13
2023-03-21T02:10:02.686Z,98423.19
2023-03-21T02:13:09.523Z,98419.66
2023-03-21T02:16:17.137Z,98421.41
2023-03-21T02:19:34.162Z,98411.66
2023-03-21T02:22:54.740Z,98406.41
2023-03-21T02:26:18.068Z,98395.78
2023-03-21T02:29:28.503Z,98390.50
2023-03-21T02:32:38.357Z,98405.47
2023-03-21T02:35:55.406Z,98400.16
2023-03-21T02:39:08.035Z,98395.66
2023-03-21T02:42:14.742Z,98386.00
2023-03-21T02:45:17.830Z,98386.00
2023-03-21T02:48:41.117Z,98393.03
2023-03-21T02:51:51.928Z,98392.22
2023-03-21T02:54:56.738Z,98386.00
2023-03-21T02:58:12.296Z,98386.84
2023-03-21T03:01:19.254Z,98378.09
2023-03-21T03:04:24.481Z,98384.25
2023-03-21T03:07:33.938Z,98374.56
2023-03-21T03:10:43.539Z,98372.81
2023-03-21T03:13:54.081Z,98370.06
2023-03-21T03:17:00.590Z,98371.00
2023-03-21T03:20:16.592Z,98369.28
2023-03-21T03:23:24.455Z,98368.38
2023-03-21T03:26:30.789Z,98368.38
2023-03-21T03:29:34.870Z,98378.97
2023-03-21T03:32:39.776Z,98366.66
2023-03-21T03:35:41.722Z,98376.31
2023-03-21T03:38:44.357Z,98371.88
2023-03-21T03:42:18.448Z,98357.69
2023-03-21T03:45:16.611Z,98357.75
2023-03-21T03:48:22.327Z,98361.19
2023-03-21T03:51:28.430Z,98361.19
2023-03-21T03:54:56.358Z,98362.06
2023-03-21T03:58:03.195Z,98359.41
2023-03-21T04:01:05.753Z,98369.16
2023-03-21T04:04:13.164Z,98360.28
2023-03-21T04:07:16.609Z,98356.69
2023-03-21T04:10:18.588Z,98357.56
2023-03-21T04:13:22.002Z,98357.50
2023-03-21T04:16:43.860Z,98353.00
2023-03-21T04:19:46.264Z,98353.00
2023-03-21T04:22:49.384Z,98355.66
2023-03-21T04:25:56.612Z,98356.50
2023-03-21T04:29:08.805Z,98348.53
2023-03-21T04:32:53.982Z,98343.16
2023-03-21T04:35:56.323Z,98345.75
2023-03-21T04:39:01.499Z,98342.31
2023-03-21T04:42:05.082Z,98334.28
2023-03-21T04:45:09.019Z,98329.84
2023-03-21T04:48:10.968Z,98333.31
2023-03-21T04:51:12.959Z,98326.28
2023-03-21T04:57:17.524Z,98327.13
2023-03-21T05:00:21.201Z,98324.44
2023-03-21T05:03:22.834Z,98327.88
2023-03-21T05:06:26.458Z,98324.38
2023-03-21T05:09:28.302Z,98325.28
2023-03-21T05:12:30.261Z,98325.22
2023-03-21T05:15:33.236Z,98322.56
2023-03-21T05:18:38.716Z,98321.66
2023-03-21T05:21:46.806Z,98316.31
2023-03-21T05:24:55.407Z,98323.38
2023-03-21T05:28:19.925Z,98322.47
2023-03-21T05:31:23.166Z,98323.38
2023-03-21T05:34:39.970Z,98323.28
2023-03-21T05:37:41.571Z,98329.41
2023-03-21T05:40:46.586Z,98329.34
2023-03-21T05:43:48.679Z,98325.81
2023-03-21T05:46:52.293Z,98332.84
2023-03-21T05:49:57.926Z,98326.63
2023-03-21T05:53:00.118Z,98331.88
2023-03-21T05:56:02.095Z,98337.16
2023-03-21T05:59:26.392Z,98328.19
2023-03-21T06:02:32.949Z,98326.34
2023-03-21T06:05:41.459Z,98330.66
2023-03-21T06:08:50.848Z,98333.19
2023-03-21T06:11:55.496Z,98329.53
2023-03-21T06:15:08.889Z,98328.47
2023-03-21T06:18:24.616Z,98332.00
2023-03-21T06:21:36.992Z,98329.28
2023-03-21T06:24:42.127Z,98334.56
2023-03-21T06:27:43.691Z,98329.19
2023-03-21T06:30:45.463Z,98332.69
2023-03-21T06:33:56.837Z,98323.81
2023-03-21T06:36:59.893Z,98330.84
2023-03-21T06:40:07.117Z,98338.63
2023-03-21T06:43:09.153Z,98336.78
2023-03-21T06:46:11.427Z,98336.78
2023-03-21T06:49:13.799Z,98337.66
2023-03-21T06:52:16.919Z,98338.53
2023-03-21T06:55:19.602Z,98339.31
2023-03-21T06:58:22.105Z,98336.53
2023-03-21T07:01:24.953Z,98338.28
2023-03-21T07:04:34.023Z,98331.09
2023-03-21T07:07:38.458Z,98328.38
2023-03-21T07:10:40.285Z,98333.66
2023-03-21T07:13:42.015Z,98338.03
2023-03-21T07:16:43.710Z,98338.84
2023-03-21T07:19:45.338Z,98336.06
2023-03-21T07:22:49.903Z,98339.50
2023-03-21T07:25:52.496Z,98328.78
2023-03-21T07:28:54.243Z,98333.06
2023-03-21T07:31:56.050Z,98331.19
2023-03-21T07:34:58.873Z,98333.75
2023-03-21T07:38:03.355Z,98328.31
2023-03-21T07:41:05.404Z,98322.78
2023-03-21T07:44:08.791Z,98319.03
2023-03-21T07:47:10.333Z,98322.19
2023-03-21T07:50:11.992Z,98314.81
2023-03-21T07:53:14.982Z,98320.75
2023-03-21T07:56:16.506Z,98320.44
2023-03-21T07:59:18.093Z,98320.19
2023-03-21T08:02:19.843Z,98326.28
2023-03-21T08:05:21.934Z,98330.75
2023-03-21T08:08:25.237Z,98322.69
2023-03-21T08:11:27.599Z,98315.41
2023-03-21T08:14:29.223Z,98323.09
2023-03-21T08:17:31.186Z,98318.47
2023-03-21T08:20:32.704Z,98326.38
2023-03-21T08:23:36.316Z,98317.34
2023-03-21T08:26:38.349Z,98319.66
2023-03-21T08:29:42.451Z,98320.38
2023-03-21T08:32:44.427Z,98318.31
2023-03-21T08:35:46.678Z,98323.31
2023-03-21T08:38:54.178Z,98330.88
2023-03-21T08:41:55.724Z,98324.75
2023-03-21T08:44:57.246Z,98322.69
2023-03-21T08:47:59.004Z,98329.63
2023-03-21T08:51:00.779Z,98328.38
2023-03-21T08:54:04.103Z,98324.53
2023-03-21T08:57:05.671Z,98322.50
2023-03-21T09:00:14.769Z,98324.91
2023-03-21T09:03:16.576Z,98324.69
2023-03-21T09:06:18.954Z,98326.28
2023-03-21T09:09:22.057Z,98321.69
2023-03-21T09:12:23.731Z,98322.53
2023-03-21T09:15:27.495Z,98322.53
2023-03-21T09:18:48.853Z,98328.78
2023-03-21T09:21:50.730Z,98320.13
2023-03-21T09:24:54.025Z,98324.47
2023-03-21T09:27:55.719Z,98324.56
2023-03-21T09:30:58.336Z,98327.25
2023-03-21T09:34:00.383Z,98325.69
2023-03-21T09:37:02.271Z,98341.66
2023-03-21T09:40:08.783Z,98339.78
2023-03-21T09:43:16.421Z,98328.94
2023-03-21T09:46:22.610Z,98332.47
2023-03-21T09:49:31.029Z,98325.47
2023-03-21T09:52:39.831Z,98329.22
2023-03-21T09:55:44.530Z,98329.22
2023-03-21T09:58:50.821Z,98331.25
2023-03-21T10:01:52.380Z,98327.81
2023-03-21T10:04:55.632Z,98325.53
2023-03-21T10:08:04.426Z,98329.31
2023-03-21T10:11:12.735Z,98320.56
2023-03-21T10:14:19.097Z,98322.88
2023-03-21T10:17:29.896Z,98324.38
2023-03-21T10:20:32.520Z,98320.84
2023-03-21T10:23:34.279Z,98320.06
2023-03-21T10:26:37.271Z,98319.28
2023-03-21T10:29:42.354Z,98303.31
2023-03-21T10:32:46.161Z,98311.38
2023-03-21T10:35:50.658Z,98308.34
2023-03-21T10:38:54.568Z,98307.06
2023-03-21T10:41:57.515Z,98309.00
2023-03-21T10:44:59.425Z,98302.50
2023-03-21T10:48:07.187Z,98300.59
2023-03-21T10:51:09.868Z,98293.47
2023-03-21T10:54:13.855Z,98296.13
2023-03-21T10:57:19.693Z,98293.41
2023-03-21T11:00:22.893Z,98289.56
2023-03-21T11:03:29.098Z,98297.22
2023-03-21T11:06:31.616Z,98300.56
2023-03-21T11:09:44.056Z,98287.75
2023-03-21T11:12:48.606Z,98287.84
2023-03-21T11:15:53.039Z,98290.75
2023-03-21T11:18:57.344Z,98283.16
2023-03-21T11:21:59.415Z,98277.84
2023-03-21T11:25:02.148Z,98285.16
2023-03-21T11:28:08.733Z,98281.72
2023-03-21T11:31:10.684Z,98283.50
2023-03-21T11:34:24.097Z,98285.63
2023-03-21T11:37:26.851Z,98287.69
2023-03-21T11:40:29.352Z,98280.69
2023-03-21T11:43:35.065Z,98279.47
2023-03-21T11:46:40.673Z,98283.75
2023-03-21T11:49:42.322Z,98282.56
2023-03-21T11:52:48.235Z,98278.25
2023-03-21T11:55:57.451Z,98279.06
2023-03-21T11:59:06.886Z,98275.53
2023-03-21T12:02:37.275Z,98267.38
2023-03-21T12:05:44.162Z,98260.00
2023-03-21T12:08:49.512Z,98256.41
2023-03-21T12:11:54.958Z,98260.94
2023-03-21T12:15:01.322Z,98251.38
2023-03-21T12:22:13.243Z,98242.72
2023-03-21T12:25:27.985Z,98234.53
2023-03-21T12:28:36.350Z,98232.59
2023-03-21T12:31:46.558Z,98223.66
2023-03-21T12:34:57.857Z,98225.31
2023-03-21T12:38:09.361Z,98218.09
2023-03-21T12:41:17.680Z,98218.09
2023-03-21T12:44:21.311Z,98211.13
2023-03-21T12:47:26.246Z,98210.34
2023-03-21T12:50:29.925Z,98204.31
2023-03-21T12:53:36.349Z,98207.91
2023-03-21T12:56:41.037Z,98209.56
2023-03-21T12:59:46.660Z,98204.25
2023-03-21T13:02:50.620Z,98197.13
2023-03-21T13:05:53.938Z,98194.66
2023-03-21T13:08:58.252Z,98199.97
2023-03-21T13:12:06.547Z,98194.81
2023-03-21T13:15:23.760Z,98189.50
2023-03-21T13:18:32.704Z,98186.75
2023-03-21T13:21:41.683Z,98187.25
2023-03-21T13:24:48.129Z,98178.41
2023-03-21T13:27:53.953Z,98173.00
2023-03-21T13:37:35.757Z,98172.31
2023-03-21T13:40:38.632Z,98168.63
2023-03-21T13:43:43.178Z,98164.41
2023-03-21T13:46:53.475Z,98164.94
2023-03-21T13:50:14.748Z,98164.00
2023-03-21T13:53:30.567Z,98169.91
2023-03-21T13:56:48.862Z,98163.44
2023-03-21T14:00:10.659Z,98160.03
2023-03-21T14:03:14.682Z,98161.13
2023-03-21T14:06:18.489Z,98150.56
2023-03-21T14:09:25.436Z,98140.03
2023-03-21T14:12:28.423Z,98137.38
2023-03-21T14:15:41.001Z,98136.44
2023-03-21T14:18:55.238Z,98134.72
2023-03-21T14:21:58.152Z,98130.03
2023-03-21T14:25:02.460Z,98120.88
2023-03-21T14:28:05.440Z,98126.84
2023-03-21T14:31:07.249Z,98124.19
2023-03-21T14:34:10.517Z,98124.81
2023-03-21T14:37:12.146Z,98127.34
2023-03-21T14:40:23.017Z,98124.69
2023-03-21T14:43:24.896Z,98119.03
2023-03-21T14:46:26.975Z,98120.75
2023-03-21T14:49:30.301Z,98118.81
2023-03-21T14:52:34.733Z,98112.66
2023-03-21T14:55:46.354Z,98111.91
2023-03-21T14:58:48.285Z,98112.22
2023-03-21T15:01:50.854Z,98106.09
2023-03-21T15:04:53.384Z,98091.84
2023-03-21T15:07:56.866Z,98091.84
2023-03-21T15:11:08.556Z,98083.06
2023-03-21T15:14:13.639Z,98074.13
2023-03-21T15:17:15.455Z,98074.97
2023-03-21T15:20:17.099Z,98064.28
2023-03-21T15:23:23.913Z,98067.88
2023-03-21T15:26:27.368Z,98064.13
2023-03-21T15:29:29.236Z,98070.13
2023-03-21T15:32:31.041Z,98059.41
2023-03-21T15:35:34.675Z,98062.88
2023-03-21T15:38:37.408Z,98046.16
2023-03-21T15:41:40.574Z,98045.22
2023-03-21T15:44:45.929Z,98042.56
2023-03-21T15:47:53.267Z,98034.47
2023-03-21T15:50:57.628Z,98020.38
2023-03-21T15:54:00.266Z,98021.41
2023-03-21T15:57:09.426Z,98042.72
2023-03-21T16:00:21.593Z,98038.44
2023-03-21T16:03:24.717Z,98042.97
2023-03-21T16:06:30.443Z,98030.53
2023-03-21T16:09:39.218Z,98020.88
2023-03-21T16:12:42.138Z,98006.00
2023-03-21T16:15:43.789Z,97988.38
2023-03-21T16:18:45.439Z,98005.31
2023-03-21T16:21:47.119Z,98026.59
2023-03-21T16:24:49.223Z,98019.47
2023-03-21T16:27:52.534Z,98029.34
2023-03-21T16:30:54.114Z,98029.41
2023-03-21T16:33:58.887Z,98027.63
2023-03-21T16:37:00.491Z,98027.69
2023-03-21T16:40:02.585Z,98031.38
2023-03-21T16:43:05.695Z,98025.25
2023-03-21T16:46:09.427Z,98026.22
2023-03-21T16:49:17.759Z,98011.31
2023-03-21T16:52:19.343Z,98013.19
2023-03-21T16:55:21.193Z,98022.97
2023-03-21T16:58:24.005Z,98030.09
2023-03-21T17:01:27.543Z,98023.84
2023-03-21T17:04:29.286Z,98025.56
2023-03-21T17:07:31.075Z,98038.81
2023-03-21T17:10:33.327Z,98028.00
2023-03-21T17:13:36.457Z,98027.16
2023-03-21T17:16:40.406Z,98013.97
2023-03-21T17:19:42.184Z,98029.09
2023-03-21T17:22:46.541Z,98030.09
2023-03-21T17:25:48.207Z,98032.00
2023-03-21T17:28:53.612Z,98036.53
2023-03-21T17:31:56.701Z,98042.88
2023-03-21T17:34:58.317Z,98042.03
2023-03-21T17:38:00.103Z,98042.03
2023-03-21T17:41:02.034Z,98040.28
2023-03-21T17:44:05.393Z,98043.09
2023-03-21T17:47:07.170Z,98046.78
2023-03-21T17:50:14.462Z,98049.59
2023-03-21T17:53:16.382Z,98051.53
2023-03-21T17:56:20.742Z,98044.72
2023-03-21T17:59:23.742Z,98049.31
2023-03-21T18:02:25.286Z,98046.13
2023-03-21T18:05:27.442Z,98050.56
2023-03-21T18:08:29.661Z,98052.44
2023-03-21T18:11:31.301Z,98055.16
2023-03-21T18:14:34.981Z,98041.06
2023-03-21T18:17:37.443Z,98042.88
2023-03-21T18:20:52.220Z,98046.47
2023-03-21T18:23:54.538Z,98045.69
2023-03-21T18:26:56.114Z,98042.25
2023-03-21T18:33:21.348Z,98044.34
2023-03-21T18:36:26.286Z,98043.47
2023-03-21T18:39:29.698Z,98041.03
2023-03-21T18:42:31.609Z,98051.59
2023-03-21T18:45:34.906Z,98054.28
2023-03-21T18:48:36.541Z,98051.59
2023-03-21T18:51:38.124Z,98046.28
2023-03-21T18:54:40.680Z,98047.16
2023-03-21T18:57:42.330Z,98040.97
2023-03-21T19:00:45.731Z,98052.63
2023-03-21T19:04:14.529Z,98051.69
2023-03-21T19:10:23.670Z,98050.81
2023-03-21T19:13:25.762Z,98048.16
2023-03-21T19:16:32.708Z,98051.59
2023-03-21T19:19:41.861Z,98060.28
2023-03-21T19:22:43.445Z,98048.72
2023-03-21T19:25:45.233Z,98047.84
2023-03-21T19:28:47.056Z,98051.44
2023-03-21T19:31:51.216Z,98054.09
2023-03-21T19:34:53.005Z,98055.91
2023-03-21T19:37:54.633Z,98047.00
2023-03-21T19:40:58.730Z,98056.78
2023-03-21T19:44:00.442Z,98046.06
2023-03-21T19:47:03.626Z,98051.28
2023-03-21T19:50:45.575Z,98044.25
2023-03-21T19:53:27.525Z,98039.78
2023-03-21T19:56:32.344Z,98042.53
2023-03-21T19:59:33.911Z,98042.53
2023-03-21T20:02:37.986Z,98039.00
2023-03-21T20:05:39.816Z,98042.63
2023-03-21T20:12:05.663Z,98032.91
2023-03-21T20:15:17.219Z,98030.25
2023-03-21T20:18:24.047Z,98039.09
2023-03-21T20:21:32.468Z,98039.09
2023-03-21T20:24:36.855Z,98038.22
2023-03-21T20:27:40.072Z,98039.09
2023-03-21T20:30:44.442Z,98036.50
2023-03-21T20:33:48.999Z,98032.06
2023-03-21T20:36:50.724Z,98032.22
2023-03-21T20:39:52.555Z,98032.22
2023-03-21T20:42:56.282Z,98030.31
2023-03-21T20:46:01.990Z,98025.88
2023-03-21T20:49:06.627Z,98023.41
2023-03-21T20:52:52.199Z,98016.38
2023-03-21T20:55:30.315Z,98019.16
2023-03-21T20:58:57.194Z,98016.66
2023-03-21T21:01:55.913Z,98012.56
2023-03-21T21:05:24.077Z,98011.94
2023-03-21T21:08:20.626Z,98009.28
2023-03-21T21:14:44.367Z,98005.00
2023-03-21T21:18:04.861Z,98007.75
2023-03-21T21:21:09.050Z,98004.31
2023-03-21T21:24:10.822Z,98007.81
2023-03-21T21:27:12.377Z,98006.09
2023-03-21T21:30:17.699Z,97999.06
2023-03-21T21:36:33.974Z,98001.72
2023-03-21T21:39:35.579Z,98001.72
2023-03-21T21:42:37.260Z,97995.53
2023-03-21T21:45:39.190Z,97997.34
2023-03-21T21:48:41.990Z,97992.97
2023-03-21T21:51:47.731Z,97988.59
2023-03-21T21:54:50.521Z,97985.13
2023-03-21T21:57:53.153Z,97987.91
2023-03-21T22:00:58.327Z,97992.66
2023-03-21T22:04:06.562Z,97988.34
2023-03-21T22:07:14.842Z,97985.13
2023-03-21T22:10:16.727Z,97982.75
2023-03-21T22:13:18.759Z,97982.13
2023-03-21T22:16:20.619Z,97980.66
2023-03-21T22:19:22.270Z,97986.91
2023-03-21T22:22:25.498Z,97990.63
2023-03-21T22:25:27.088Z,97980.22
2023-03-21T22:28:28.860Z,97975.13
2023-03-21T22:31:30.571Z,97974.28
2023-03-21T22:34:32.529Z,97968.34
2023-03-21T22:37:36.745Z,97973.59
2023-03-21T22:40:39.013Z,97961.47
2023-03-21T22:43:40.941Z,97964.31
2023-03-21T22:46:42.603Z,97966.25
2023-03-21T22:49:46.418Z,97960.25
2023-03-21T22:52:49.645Z,97955.72
2023-03-21T22:55:51.463Z,97969.69
2023-03-21T22:58:53.003Z,97957.13
2023-03-21T23:01:54.604Z,97961.47
2023-03-21T23:04:56.422Z,97953.44
2023-03-21T23:07:59.376Z,97958.66
2023-03-21T23:11:05.406Z,97959.59
2023-03-21T23:14:08.698Z,97963.28
2023-03-21T23:17:12.550Z,97962.34
2023-03-21T23:20:14.830Z,97962.44
2023-03-21T23:23:18.285Z,97960.03
2023-03-21T23:26:21.201Z,97954.00
2023-03-21T23:29:23.038Z,97959.31
2023-03-21T23:32:24.652Z,97974.31
2023-03-21T23:35:27.356Z,97957.59
2023-03-21T23:38:30.679Z,97954.03
2023-03-21T23:41:32.495Z,97949.72
2023-03-21T23:44:34.149Z,97952.38
2023-03-21T23:47:35.790Z,97940.13
2023-03-21T23:50:37.833Z,97944.56
2023-03-21T23:53:41.052Z,97937.63
2023-03-21T23:56:43.130Z,97939.59
2023-03-21T23:59:47.034Z,97945.03
